This is the latest recevied weather packets stored in our database for station/object K4ROM-1. If no packets are shown the sender has not sent any weather packets the latest 10 day(s).
| Time | Temp. | Humidity | Pressure | Rain* | Wind** | Luminosity | Snow |
|---|---|---|---|---|---|---|---|
| 1778108404 | 24.44° C | 67% | 1013.1 hPa | 0 mm | 0.45 m/s, 261° | - | - |
| 1778107802 | 25° C | 66% | 1012.9 hPa | 0 mm | 1.34 m/s, 256° | - | - |
| 1778107203 | 25° C | 66% | 1013.1 hPa | 0 mm | 1.34 m/s, 227° | - | - |
| 1778106604 | 25.56° C | 65% | 1012.9 hPa | 0 mm | 0.89 m/s, 240° | - | - |
| 1778106003 | 26.11° C | 63% | 1012.7 hPa | 0 mm | 1.79 m/s, 279° | - | - |
| 1778105403 | 25° C | 65% | 1013 hPa | 0 mm | 0.89 m/s, 234° | - | - |
| 1778104803 | 25.56° C | 64% | 1012.8 hPa | 0 mm | 1.34 m/s, 241° | - | - |
| 1778104203 | 26.11° C | 65% | 1013 hPa | 0 mm | 0.89 m/s, 106° | - | - |
| 1778103603 | 26.11° C | 65% | 1012.4 hPa | 0 mm | 1.34 m/s, 272° | - | - |
| 1778103004 | 26.11° C | 66% | 1012.7 hPa | 0 mm | 0.45 m/s, 266° | - | - |
| 1778102403 | 25.56° C | 66% | 1013 hPa | 0 mm | 1.79 m/s, 255° | - | - |
| 1778101803 | 25.56° C | 66% | 1012.8 hPa | 0 mm | 0.45 m/s, 271° | - | - |
| 1778101203 | 25.56° C | 69% | 1013 hPa | 0 mm | 0.89 m/s, 155° | - | - |
| 1778100604 | 24.44° C | 71% | 1013.2 hPa | 0 mm | 1.34 m/s, 249° | - | - |
| 1778100004 | 24.44° C | 75% | 1013.3 hPa | 0 mm | 0.89 m/s, 246° | - | - |
| 1778099403 | 24.44° C | 76% | 1013.2 hPa | 0 mm | 0 m/s | - | - |
| 1778098803 | 23.89° C | 75% | 1013.3 hPa | 0 mm | 1.79 m/s, 233° | - | - |
| 1778098203 | 24.44° C | 77% | 1013.5 hPa | 0 mm | 0.45 m/s, 202° | - | - |
| 1778097603 | 23.89° C | 82% | 1013.4 hPa | 0 mm | 0.45 m/s, 283° | - | - |
| 1778097003 | 23.33° C | 84% | 1013.3 hPa | 0 mm | 0 m/s | - | - |
| 1778096404 | 22.78° C | 84% | 1013.6 hPa | 0 mm | 0 m/s | - | - |
| 1778095803 | 22.78° C | 85% | 1013.8 hPa | 0 mm | 0 m/s | - | - |
| 1778095203 | 21.67° C | 88% | 1013.9 hPa | 0 mm | 0 m/s | - | - |
| 1778094603 | 19.44° C | 91% | 1014.3 hPa | 0 mm | 0.45 m/s, 259° | - | - |
| 1778094004 | 19.44° C | 92% | 1014.2 hPa | 0 mm | 0 m/s | - | - |
* Rain latest hour (hover to see other rain measurements)
** Current wind speed in m/s (hover to see current wind gust speed)